createdAt,value
2019-02-24T00:04:40.326Z,15.13
2019-02-24T00:09:47.943Z,15.49
2019-02-24T00:14:55.610Z,15.91
2019-02-24T00:20:03.496Z,15.88
2019-02-24T00:25:11.210Z,15.66
2019-02-24T00:30:18.840Z,16.29
2019-02-24T00:35:26.929Z,16.13
2019-02-24T00:40:34.553Z,16.41
2019-02-24T00:45:42.264Z,16.11
2019-02-24T00:50:49.881Z,15.79
2019-02-24T00:55:57.567Z,16.07
2019-02-24T01:01:05.483Z,19.68
2019-02-24T01:06:13.252Z,16.68
2019-02-24T01:11:20.908Z,16.71
2019-02-24T01:17:11.430Z,20.95
2019-02-24T01:22:19.119Z,21.03
2019-02-24T01:27:26.826Z,17.97
2019-02-24T01:32:34.473Z,18.53
2019-02-24T01:37:42.166Z,21.42
2019-02-24T01:42:49.807Z,17.51
2019-02-24T01:47:57.567Z,21.15
2019-02-24T01:53:05.216Z,17.07
2019-02-24T01:58:12.960Z,16.86
2019-02-24T02:03:20.601Z,21.51
2019-02-24T02:08:28.309Z,17.49
2019-02-24T02:13:36.300Z,21.21
2019-02-24T02:18:44.164Z,17.54
2019-02-24T02:23:51.836Z,17.60
2019-02-24T02:28:59.545Z,17.21
2019-02-24T02:34:07.488Z,17.57
2019-02-24T02:39:15.311Z,21.29
2019-02-24T02:44:22.952Z,21.82
2019-02-24T02:49:30.718Z,17.76
2019-02-24T02:54:38.506Z,17.81
2019-02-24T02:59:46.248Z,18.68
2019-02-24T03:04:53.924Z,17.91
2019-02-24T03:10:02.853Z,17.64
2019-02-24T03:15:08.877Z,17.88
2019-02-24T03:20:16.869Z,17.62
2019-02-24T03:25:24.520Z,17.77
2019-02-24T03:30:32.497Z,17.34
2019-02-24T03:35:40.104Z,17.51
2019-02-24T03:40:47.852Z,17.42
2019-02-24T03:45:55.490Z,17.97
2019-02-24T03:51:03.314Z,17.69
2019-02-24T03:56:10.969Z,22.76
2019-02-24T04:01:18.729Z,18.62
2019-02-24T04:06:26.409Z,18.27
2019-02-24T04:11:34.272Z,17.05
2019-02-24T04:16:41.965Z,17.84
2019-02-24T04:21:49.813Z,17.42
2019-02-24T04:26:57.502Z,17.73
2019-02-24T04:32:05.245Z,17.58
2019-02-24T04:37:12.922Z,18.20
2019-02-24T04:42:20.786Z,17.74
2019-02-24T04:47:28.468Z,17.96
2019-02-24T04:52:36.198Z,17.50
2019-02-24T04:57:43.891Z,17.50
2019-02-24T05:02:51.659Z,17.45
2019-02-24T05:07:59.332Z,22.51
2019-02-24T05:13:07.073Z,17.77
2019-02-24T05:18:14.762Z,17.92
2019-02-24T05:23:22.482Z,17.54
2019-02-24T05:28:30.152Z,18.13
2019-02-24T05:33:37.898Z,17.39
2019-02-24T05:38:45.577Z,17.91
2019-02-24T05:43:53.227Z,17.69
2019-02-24T05:49:00.920Z,17.56
2019-02-24T05:54:09.738Z,17.76
2019-02-24T05:59:17.444Z,22.74
2019-02-24T06:04:25.187Z,17.67
2019-02-24T06:09:32.829Z,17.28
2019-02-24T06:14:40.604Z,18.18
2019-02-24T06:19:48.277Z,23.00
2019-02-24T06:24:56.000Z,18.66
2019-02-24T06:30:05.395Z,17.95
2019-02-24T06:35:10.955Z,18.04
2019-02-24T06:40:18.632Z,23.66
2019-02-24T06:45:26.360Z,18.69
2019-02-24T06:50:35.653Z,19.97
2019-02-24T06:55:41.565Z,26.22
2019-02-24T07:00:49.192Z,20.68
2019-02-24T07:05:58.332Z,21.68
2019-02-24T07:11:06.028Z,20.07
2019-02-24T07:16:13.825Z,20.35
2019-02-24T07:21:21.439Z,25.32
2019-02-24T07:26:29.220Z,24.02
2019-02-24T07:31:37.861Z,19.18
2019-02-24T07:36:45.637Z,18.78
2019-02-24T07:41:53.258Z,19.49
2019-02-24T07:47:01.012Z,18.83
2019-02-24T07:52:08.696Z,23.62
2019-02-24T07:57:16.433Z,19.44
2019-02-24T08:02:24.116Z,18.49
2019-02-24T08:07:31.981Z,18.33
2019-02-24T08:12:39.651Z,20.71
2019-02-24T08:17:47.345Z,16.98
2019-02-24T08:22:55.029Z,16.52
2019-02-24T08:28:02.770Z,17.35
2019-02-24T08:33:10.452Z,17.88
2019-02-24T08:38:18.140Z,17.51
2019-02-24T08:43:25.812Z,16.92
2019-02-24T08:48:33.502Z,16.75
2019-02-24T08:53:41.185Z,15.22
2019-02-24T08:58:48.937Z,15.34
2019-02-24T09:03:56.616Z,14.91
2019-02-24T09:09:04.456Z,14.63
2019-02-24T09:14:12.140Z,17.33
2019-02-24T09:19:19.990Z,17.33
2019-02-24T09:24:27.652Z,16.06
2019-02-24T09:29:35.341Z,14.79
2019-02-24T09:34:43.038Z,14.32
2019-02-24T09:39:50.741Z,14.76
2019-02-24T09:44:58.456Z,13.81
2019-02-24T09:50:06.169Z,13.48
2019-02-24T09:55:13.845Z,13.87
2019-02-24T10:00:22.088Z,13.43
2019-02-24T10:05:28.752Z,14.00
2019-02-24T10:10:36.406Z,17.04
2019-02-24T10:15:44.088Z,14.18
2019-02-24T10:20:52.197Z,13.67
2019-02-24T10:25:59.868Z,15.89
2019-02-24T10:31:08.458Z,14.08
2019-02-24T10:36:16.143Z,13.72
2019-02-24T10:41:23.837Z,14.14
2019-02-24T10:46:31.514Z,13.61
2019-02-24T10:51:39.349Z,13.67
2019-02-24T10:56:46.972Z,14.07
2019-02-24T11:01:54.609Z,12.81
2019-02-24T11:07:02.240Z,12.50
2019-02-24T11:12:09.977Z,12.51
2019-02-24T11:17:17.604Z,14.68
2019-02-24T11:22:25.284Z,13.01
2019-02-24T11:27:32.905Z,12.03
2019-02-24T11:32:40.544Z,11.74
2019-02-24T11:37:48.172Z,11.75
2019-02-24T11:42:55.893Z,11.70
2019-02-24T11:48:03.534Z,11.47
2019-02-24T11:53:11.183Z,11.65
2019-02-24T11:58:18.786Z,12.87
2019-02-24T12:03:26.512Z,12.52
2019-02-24T12:08:34.152Z,11.93
2019-02-24T12:13:41.874Z,12.19
2019-02-24T12:18:49.533Z,11.17
2019-02-24T12:23:57.244Z,10.98
2019-02-24T12:29:04.913Z,11.12
2019-02-24T12:34:12.553Z,11.94
2019-02-24T12:39:20.257Z,11.38
2019-02-24T12:44:27.916Z,10.10
2019-02-24T12:49:35.584Z,10.03
2019-02-24T12:54:43.300Z,10.66
2019-02-24T12:59:50.972Z,10.29
2019-02-24T13:04:58.698Z,10.48
2019-02-24T13:10:06.376Z,10.23
2019-02-24T13:15:14.208Z,9.62
2019-02-24T13:20:21.890Z,10.22
2019-02-24T13:25:30.130Z,10.29
2019-02-24T13:30:37.808Z,9.28
2019-02-24T13:35:45.497Z,9.47
2019-02-24T13:40:53.120Z,9.56
2019-02-24T13:46:00.976Z,9.71
2019-02-24T13:51:08.611Z,8.78
2019-02-24T13:56:16.301Z,10.10
2019-02-24T14:01:23.936Z,8.16
2019-02-24T14:06:31.629Z,8.41
2019-02-24T14:11:39.249Z,8.78
2019-02-24T14:16:47.074Z,8.26
2019-02-24T14:21:54.696Z,7.87
2019-02-24T14:27:02.462Z,8.18
2019-02-24T14:32:10.080Z,8.96
2019-02-24T14:37:17.786Z,7.48
2019-02-24T14:42:25.411Z,6.79
2019-02-24T14:47:33.092Z,8.07
2019-02-24T14:52:40.713Z,8.63
2019-02-24T14:57:48.404Z,7.86
2019-02-24T15:02:56.067Z,7.62
2019-02-24T15:08:03.760Z,7.08
2019-02-24T15:13:11.437Z,6.07
2019-02-24T15:18:19.211Z,6.77
2019-02-24T15:23:26.833Z,6.62
2019-02-24T15:28:34.539Z,6.01
2019-02-24T15:33:42.838Z,7.15
2019-02-24T15:38:50.520Z,6.78
2019-02-24T15:43:58.208Z,6.96
2019-02-24T15:49:05.923Z,7.52
2019-02-24T15:54:13.588Z,7.66
2019-02-24T15:59:21.320Z,8.21
2019-02-24T16:04:28.968Z,8.21
2019-02-24T16:09:36.733Z,8.57
2019-02-24T16:14:44.397Z,8.70
2019-02-24T16:19:52.163Z,8.77
2019-02-24T16:24:59.831Z,10.19
2019-02-24T16:30:07.525Z,11.52
2019-02-24T16:35:15.216Z,11.05
2019-02-24T16:40:22.962Z,10.94
2019-02-24T16:45:33.414Z,11.45
2019-02-24T16:50:31.149Z,11.26
2019-02-24T16:55:38.846Z,12.71
2019-02-24T17:00:46.607Z,12.03
2019-02-24T17:05:54.293Z,9.83
2019-02-24T17:11:07.458Z,9.91
2019-02-24T17:16:09.253Z,9.61
2019-02-24T17:21:17.195Z,8.93
2019-02-24T17:26:24.878Z,9.66
2019-02-24T17:31:32.578Z,8.78
2019-02-24T17:36:40.249Z,9.13
2019-02-24T17:41:48.157Z,9.18
2019-02-24T17:46:55.841Z,8.76
2019-02-24T17:52:03.581Z,9.02
2019-02-24T17:57:11.256Z,8.99
2019-02-24T18:02:18.968Z,8.91
2019-02-24T18:07:26.632Z,10.68
2019-02-24T18:12:34.377Z,10.56
2019-02-24T18:17:42.060Z,11.43
2019-02-24T18:22:49.773Z,10.00
2019-02-24T18:27:57.488Z,10.57
2019-02-24T18:33:05.251Z,10.47
2019-02-24T18:38:12.943Z,10.23
2019-02-24T18:43:20.667Z,10.84
2019-02-24T18:48:28.354Z,10.25
2019-02-24T18:53:36.115Z,10.41
2019-02-24T18:58:43.792Z,10.85
2019-02-24T19:03:57.766Z,10.66
2019-02-24T19:07:06.672Z,10.61
2019-02-24T19:12:14.314Z,10.46
2019-02-24T19:17:22.008Z,9.97
2019-02-24T19:22:29.960Z,9.84
2019-02-24T19:27:37.666Z,10.43
2019-02-24T19:32:48.493Z,10.67
2019-02-24T19:37:46.194Z,10.47
2019-02-24T19:42:53.828Z,11.25
2019-02-24T19:48:02.579Z,11.95
2019-02-24T19:53:10.186Z,12.17
2019-02-24T19:58:17.876Z,12.28
2019-02-24T20:03:25.516Z,12.74
2019-02-24T20:08:33.201Z,11.84
2019-02-24T20:13:40.825Z,11.36
2019-02-24T20:18:48.465Z,10.96
2019-02-24T20:23:56.084Z,10.87
2019-02-24T20:29:03.816Z,10.25
2019-02-24T20:34:11.476Z,10.78
2019-02-24T20:39:19.191Z,10.49
2019-02-24T20:44:26.806Z,10.46
2019-02-24T20:49:34.532Z,10.43
2019-02-24T20:54:42.222Z,11.28
2019-02-24T20:59:49.912Z,10.64
2019-02-24T21:04:57.541Z,10.71
2019-02-24T21:10:05.341Z,10.77
2019-02-24T21:15:12.969Z,11.89
2019-02-24T21:20:20.752Z,11.14
2019-02-24T21:25:28.359Z,11.34
2019-02-24T21:30:36.109Z,11.94
2019-02-24T21:35:43.748Z,11.60
2019-02-24T21:40:51.620Z,11.64
2019-02-24T21:45:59.259Z,12.64
2019-02-24T21:51:06.965Z,12.92
2019-02-24T21:56:14.644Z,14.39
2019-02-24T22:01:22.385Z,13.21
2019-02-24T22:06:30.052Z,13.20
2019-02-24T22:11:38.013Z,12.97
2019-02-24T22:16:45.692Z,13.26
2019-02-24T22:21:53.396Z,13.56
2019-02-24T22:27:01.076Z,13.34
2019-02-24T22:32:08.834Z,13.51
2019-02-24T22:37:16.521Z,13.62
2019-02-24T22:42:24.277Z,14.18
2019-02-24T22:47:31.960Z,14.09
2019-02-24T22:52:39.652Z,14.40
2019-02-24T22:57:47.321Z,13.81
2019-02-24T23:02:55.350Z,14.05
2019-02-24T23:08:03.033Z,13.36
2019-02-24T23:13:10.798Z,14.48
2019-02-24T23:18:18.472Z,13.96
2019-02-24T23:23:26.162Z,13.90
2019-02-24T23:28:33.825Z,15.98
2019-02-24T23:33:41.637Z,14.78
2019-02-24T23:38:49.309Z,14.50
2019-02-24T23:43:57.050Z,14.08
2019-02-24T23:49:04.725Z,14.65
2019-02-24T23:54:12.391Z,14.82
2019-02-24T23:59:20.076Z,15.00
